createdAt,value
2023-07-18T00:00:21.082Z,53.20
2023-07-18T00:02:49.768Z,52.50
2023-07-18T00:05:18.450Z,50.60
2023-07-18T00:07:46.624Z,51.50
2023-07-18T00:10:16.565Z,51.30
2023-07-18T00:12:45.056Z,51.10
2023-07-18T00:15:14.289Z,51.20
2023-07-18T00:17:42.714Z,51.70
2023-07-18T00:20:14.006Z,52.50
2023-07-18T00:22:42.785Z,52.10
2023-07-18T00:25:12.365Z,53.30
2023-07-18T00:27:42.150Z,53.40
2023-07-18T00:30:10.989Z,52.50
2023-07-18T00:32:39.199Z,50.70
2023-07-18T00:35:08.845Z,50.80
2023-07-18T00:37:36.997Z,52.10
2023-07-18T00:40:11.473Z,54.20
2023-07-18T00:42:41.229Z,52.30
2023-07-18T00:45:09.704Z,52.10
2023-07-18T00:47:39.299Z,51.80
2023-07-18T00:50:09.679Z,51.80
2023-07-18T00:52:39.811Z,51.00
2023-07-18T00:55:08.853Z,51.60
2023-07-18T00:57:37.493Z,51.30
2023-07-18T01:00:12.486Z,51.20
2023-07-18T01:02:41.879Z,51.30
2023-07-18T01:05:10.735Z,51.90
2023-07-18T01:07:40.301Z,53.10
2023-07-18T01:10:15.765Z,52.50
2023-07-18T01:12:44.097Z,52.90
2023-07-18T01:15:14.591Z,51.70
2023-07-18T01:17:47.150Z,54.30
2023-07-18T01:20:19.776Z,53.90
2023-07-18T01:22:50.414Z,54.00
2023-07-18T01:25:19.031Z,54.50
2023-07-18T01:27:47.297Z,54.30
2023-07-18T01:30:15.884Z,54.20
2023-07-18T01:32:45.304Z,56.10
2023-07-18T01:35:13.468Z,54.60
2023-07-18T01:37:41.665Z,54.70
2023-07-18T01:40:13.753Z,55.70
2023-07-18T01:42:41.917Z,55.50
2023-07-18T01:45:10.833Z,56.00
2023-07-18T01:47:39.241Z,56.70
2023-07-18T01:50:08.735Z,54.90
2023-07-18T01:52:37.817Z,53.70
2023-07-18T01:55:06.939Z,52.30
2023-07-18T01:57:44.713Z,51.60
2023-07-18T02:00:13.908Z,51.20
2023-07-18T02:02:42.308Z,50.80
2023-07-18T02:05:10.633Z,50.90
2023-07-18T02:07:38.807Z,51.30
2023-07-18T02:10:07.934Z,51.10
2023-07-18T02:12:37.511Z,51.00
2023-07-18T02:15:07.774Z,51.10
2023-07-18T02:17:35.986Z,51.60
2023-07-18T02:20:07.287Z,52.60
2023-07-18T02:22:36.125Z,52.10
2023-07-18T02:25:04.841Z,52.00
2023-07-18T02:27:33.531Z,51.90
2023-07-18T02:30:03.236Z,53.20
2023-07-18T02:32:31.441Z,53.10
2023-07-18T02:34:59.629Z,52.10
2023-07-18T02:37:27.936Z,53.10
2023-07-18T02:39:56.250Z,52.70
2023-07-18T02:42:24.388Z,52.80
2023-07-18T02:44:52.633Z,52.90
2023-07-18T02:47:22.282Z,52.30
2023-07-18T02:49:50.480Z,52.90
2023-07-18T02:52:18.617Z,53.40
2023-07-18T02:54:46.803Z,53.40
2023-07-18T02:57:15.117Z,53.50
2023-07-18T02:59:43.340Z,53.20
2023-07-18T03:02:12.109Z,54.40
2023-07-18T03:04:41.693Z,54.70
2023-07-18T03:07:09.854Z,55.40
2023-07-18T03:09:38.210Z,55.40
2023-07-18T03:12:07.445Z,56.70
2023-07-18T03:14:36.943Z,55.30
2023-07-18T03:17:05.373Z,53.80
2023-07-18T03:19:34.013Z,54.10
2023-07-18T03:22:04.754Z,56.30
2023-07-18T03:24:35.242Z,57.30
2023-07-18T03:27:04.494Z,56.20
2023-07-18T03:29:32.668Z,57.20
2023-07-18T03:32:02.138Z,57.10
2023-07-18T03:34:30.637Z,56.40
2023-07-18T03:36:58.791Z,56.20
2023-07-18T03:39:28.380Z,55.70
2023-07-18T03:41:56.525Z,55.60
2023-07-18T03:44:24.979Z,54.70
2023-07-18T03:46:59.206Z,55.30
2023-07-18T03:49:39.190Z,55.30
2023-07-18T03:52:07.902Z,54.70
2023-07-18T03:54:37.444Z,54.90
2023-07-18T03:57:06.718Z,54.50
2023-07-18T03:59:34.907Z,54.20
2023-07-18T04:02:03.111Z,54.10
2023-07-18T04:04:32.621Z,54.40
2023-07-18T04:07:00.828Z,53.70
2023-07-18T04:09:29.356Z,54.30
2023-07-18T04:11:58.927Z,53.70
2023-07-18T04:14:27.138Z,53.50
2023-07-18T04:16:55.309Z,53.90
2023-07-18T04:19:23.487Z,54.20
2023-07-18T04:21:51.612Z,53.40
2023-07-18T04:24:19.705Z,53.00
2023-07-18T04:26:48.715Z,53.00
2023-07-18T04:29:20.158Z,53.10
2023-07-18T04:31:49.339Z,53.10
2023-07-18T04:34:18.161Z,53.60
2023-07-18T04:36:46.682Z,52.30
2023-07-18T04:39:15.886Z,52.10
2023-07-18T04:41:54.411Z,52.80
2023-07-18T04:44:25.128Z,52.80
2023-07-18T04:46:54.774Z,51.40
2023-07-18T04:49:23.582Z,51.10
2023-07-18T04:51:52.698Z,50.70
2023-07-18T04:54:21.158Z,50.50
2023-07-18T04:56:49.882Z,51.20
2023-07-18T04:59:18.055Z,52.10
2023-07-18T05:01:47.632Z,51.90
2023-07-18T05:04:15.831Z,51.30
2023-07-18T05:06:44.058Z,50.80
2023-07-18T05:09:12.262Z,50.60
2023-07-18T05:11:40.560Z,51.00
2023-07-18T05:14:08.741Z,50.70
2023-07-18T05:16:36.985Z,50.70
2023-07-18T05:19:06.827Z,50.90
2023-07-18T05:21:34.986Z,51.10
2023-07-18T05:24:03.140Z,51.30
2023-07-18T05:26:31.322Z,50.60
2023-07-18T05:28:59.481Z,50.80
2023-07-18T05:31:27.830Z,50.30
2023-07-18T05:33:55.994Z,50.40
2023-07-18T05:36:26.612Z,49.70
2023-07-18T05:38:54.782Z,49.10
2023-07-18T05:41:23.022Z,49.50
2023-07-18T05:43:51.176Z,49.40
2023-07-18T05:46:19.511Z,48.80
2023-07-18T05:48:47.743Z,48.80
2023-07-18T05:51:15.924Z,48.70
2023-07-18T05:53:46.111Z,48.40
2023-07-18T05:56:14.421Z,48.50
2023-07-18T05:58:42.560Z,47.50
2023-07-18T06:01:13.955Z,47.20
2023-07-18T06:03:42.424Z,47.20
2023-07-18T06:06:10.857Z,47.20
2023-07-18T06:08:39.013Z,47.20
2023-07-18T06:11:08.630Z,46.60
2023-07-18T06:13:36.894Z,46.70
2023-07-18T06:16:05.479Z,46.50
2023-07-18T06:18:33.650Z,46.20
2023-07-18T06:21:02.288Z,45.80
2023-07-18T06:23:31.574Z,46.40
2023-07-18T06:25:59.916Z,45.80
2023-07-18T06:28:30.394Z,46.10
2023-07-18T06:30:58.850Z,45.90
2023-07-18T06:33:27.665Z,46.30
2023-07-18T06:35:56.569Z,45.30
2023-07-18T06:38:27.289Z,45.10
2023-07-18T06:40:56.474Z,45.10
2023-07-18T06:43:25.782Z,44.50
2023-07-18T06:45:55.313Z,44.50
2023-07-18T06:48:23.490Z,45.30
2023-07-18T06:50:52.805Z,44.60
2023-07-18T06:53:21.814Z,43.40
2023-07-18T06:55:50.352Z,43.30
2023-07-18T06:58:18.633Z,43.00
2023-07-18T07:00:47.521Z,43.80
2023-07-18T07:03:17.173Z,42.70
2023-07-18T07:05:45.862Z,42.30
2023-07-18T07:08:15.166Z,42.00
2023-07-18T07:10:43.838Z,42.70
2023-07-18T07:13:12.117Z,42.60
2023-07-18T07:15:40.300Z,42.20
2023-07-18T07:18:08.612Z,42.30
2023-07-18T07:20:38.255Z,41.00
2023-07-18T07:23:06.484Z,40.80
2023-07-18T07:25:35.054Z,40.60
2023-07-18T07:28:03.215Z,40.70
2023-07-18T07:30:31.407Z,40.70
2023-07-18T07:32:59.597Z,40.70
2023-07-18T07:35:28.033Z,38.60
2023-07-18T07:37:57.948Z,38.90
2023-07-18T07:40:26.154Z,39.30
2023-07-18T07:42:54.336Z,37.90
2023-07-18T07:45:23.104Z,39.30
2023-07-18T07:47:51.333Z,38.80
2023-07-18T07:50:19.657Z,37.40
2023-07-18T07:52:47.815Z,36.00
2023-07-18T07:55:17.570Z,37.20
2023-07-18T07:57:46.378Z,36.10
2023-07-18T08:00:15.611Z,35.90
2023-07-18T08:02:43.894Z,35.40
2023-07-18T08:05:12.108Z,36.50
2023-07-18T08:07:41.009Z,35.80
2023-07-18T08:10:09.946Z,35.00
2023-07-18T08:12:39.658Z,34.60
2023-07-18T08:15:09.116Z,34.60
2023-07-18T08:17:37.308Z,34.60
2023-07-18T08:20:07.933Z,34.30
2023-07-18T08:22:36.489Z,33.70
2023-07-18T08:25:05.118Z,33.60
2023-07-18T08:27:33.416Z,33.90
2023-07-18T08:30:02.984Z,33.10
2023-07-18T08:32:31.313Z,33.10
2023-07-18T08:34:59.558Z,33.80
2023-07-18T08:37:27.683Z,34.50
2023-07-18T08:39:55.843Z,33.70
2023-07-18T08:42:26.237Z,32.90
2023-07-18T08:44:55.175Z,32.80
2023-07-18T08:47:25.564Z,33.00
2023-07-18T08:49:53.884Z,32.20
2023-07-18T08:52:22.129Z,32.30
2023-07-18T08:54:51.125Z,32.50
2023-07-18T08:57:19.388Z,32.80
2023-07-18T08:59:47.572Z,33.50
2023-07-18T09:02:15.783Z,32.70
2023-07-18T09:04:47.188Z,31.70
2023-07-18T09:07:15.806Z,32.20
2023-07-18T09:09:48.196Z,31.60
2023-07-18T09:12:17.349Z,31.40
2023-07-18T09:14:45.566Z,31.40
2023-07-18T09:17:13.848Z,31.80
2023-07-18T09:19:42.799Z,30.50
2023-07-18T09:22:14.350Z,30.80
2023-07-18T09:24:44.735Z,30.20
2023-07-18T09:27:17.062Z,30.20
2023-07-18T09:29:46.017Z,29.30
2023-07-18T09:32:17.736Z,30.10
2023-07-18T09:34:53.177Z,29.10
2023-07-18T09:37:22.860Z,29.80
2023-07-18T09:39:51.228Z,31.10
2023-07-18T09:42:20.246Z,30.30
2023-07-18T09:44:52.098Z,29.40
2023-07-18T09:47:21.848Z,29.30
2023-07-18T09:49:51.657Z,29.40
2023-07-18T09:52:20.891Z,29.20
2023-07-18T09:54:50.530Z,28.90
2023-07-18T09:57:18.746Z,28.50
2023-07-18T09:59:46.919Z,29.30
2023-07-18T10:02:15.338Z,28.60
2023-07-18T10:04:43.521Z,30.00
2023-07-18T10:07:11.672Z,30.00
2023-07-18T10:09:39.796Z,30.60
2023-07-18T10:12:13.054Z,30.20
2023-07-18T10:14:58.023Z,30.90
2023-07-18T10:17:37.596Z,30.00
2023-07-18T10:20:14.424Z,29.30
2023-07-18T10:22:50.870Z,29.30
2023-07-18T10:25:20.137Z,29.90
2023-07-18T10:27:50.622Z,30.10
2023-07-18T10:30:21.733Z,30.40
2023-07-18T10:32:54.566Z,29.80
2023-07-18T10:35:23.893Z,29.70
2023-07-18T10:37:53.837Z,30.70
2023-07-18T10:40:37.639Z,31.30
2023-07-18T10:43:10.147Z,30.30
2023-07-18T10:45:41.965Z,29.20
2023-07-18T10:48:18.904Z,28.10
2023-07-18T10:50:50.697Z,27.90
2023-07-18T10:53:20.183Z,28.20
2023-07-18T10:55:48.962Z,28.40
2023-07-18T10:58:19.628Z,28.90
2023-07-18T11:00:48.360Z,28.90
2023-07-18T11:03:23.308Z,29.30
2023-07-18T11:05:52.317Z,29.20
2023-07-18T11:08:27.236Z,29.30
2023-07-18T11:10:56.738Z,29.20
2023-07-18T11:13:32.720Z,29.30
2023-07-18T11:16:05.236Z,27.90
2023-07-18T11:18:35.930Z,27.30
2023-07-18T11:21:05.345Z,28.10
2023-07-18T11:23:34.012Z,28.40
2023-07-18T11:26:02.573Z,29.40
2023-07-18T11:28:33.858Z,30.10
2023-07-18T11:31:02.483Z,30.10
2023-07-18T11:33:31.088Z,29.70
2023-07-18T11:35:59.473Z,29.90
2023-07-18T11:38:30.765Z,29.20
2023-07-18T11:41:00.676Z,28.80
2023-07-18T11:43:32.754Z,28.50
2023-07-18T11:46:01.135Z,28.20
2023-07-18T11:48:30.022Z,27.50
2023-07-18T11:50:58.338Z,27.70
2023-07-18T11:53:27.780Z,28.40
2023-07-18T11:55:57.106Z,28.00
2023-07-18T11:58:25.724Z,29.00
2023-07-18T12:00:59.985Z,29.60
2023-07-18T12:03:28.349Z,29.00
2023-07-18T12:05:56.788Z,29.30
2023-07-18T12:08:26.044Z,29.40
2023-07-18T12:11:08.841Z,31.50
2023-07-18T12:13:38.575Z,30.10
2023-07-18T12:16:08.292Z,29.20
2023-07-18T12:18:36.560Z,29.00
2023-07-18T12:21:04.902Z,28.20
2023-07-18T12:23:33.096Z,28.70
2023-07-18T12:26:01.283Z,28.50
2023-07-18T12:28:29.410Z,28.20
2023-07-18T12:30:57.617Z,29.40
2023-07-18T12:33:27.205Z,28.80
2023-07-18T12:35:56.073Z,28.50
2023-07-18T12:38:27.554Z,28.10
2023-07-18T12:40:57.242Z,31.30
2023-07-18T12:43:25.549Z,28.70
2023-07-18T12:45:54.836Z,29.40
2023-07-18T12:48:23.032Z,28.30
2023-07-18T12:50:54.184Z,28.10
2023-07-18T12:53:22.338Z,27.30
2023-07-18T12:55:50.544Z,29.90
2023-07-18T12:58:18.777Z,28.90
2023-07-18T13:00:46.987Z,29.00
2023-07-18T13:03:15.233Z,28.90
2023-07-18T13:05:44.436Z,28.20
2023-07-18T13:08:14.165Z,27.60
2023-07-18T13:10:42.300Z,26.90
2023-07-18T13:13:10.492Z,28.30
2023-07-18T13:15:38.693Z,28.20
2023-07-18T13:18:09.675Z,27.90
2023-07-18T13:20:38.002Z,28.00
2023-07-18T13:23:06.269Z,29.90
2023-07-18T13:25:35.873Z,29.10
2023-07-18T13:28:05.573Z,28.00
2023-07-18T13:30:33.750Z,27.50
2023-07-18T13:33:02.290Z,28.30
2023-07-18T13:35:30.590Z,28.40
2023-07-18T13:37:58.764Z,27.40
2023-07-18T13:40:27.824Z,27.60
2023-07-18T13:42:57.348Z,27.70
2023-07-18T13:45:25.935Z,27.00
2023-07-18T13:47:56.269Z,27.40
2023-07-18T13:52:55.879Z,27.90
2023-07-18T13:55:24.122Z,27.00
2023-07-18T13:57:52.244Z,27.10
2023-07-18T14:00:22.325Z,26.10
2023-07-18T14:02:50.868Z,27.10
2023-07-18T14:05:19.274Z,27.90
2023-07-18T14:07:47.417Z,27.60
2023-07-18T14:10:15.610Z,27.00
2023-07-18T14:12:44.721Z,27.90
2023-07-18T14:15:13.987Z,29.40
2023-07-18T14:17:43.576Z,27.30
2023-07-18T14:20:13.587Z,28.10
2023-07-18T14:22:43.517Z,27.90
2023-07-18T14:25:12.577Z,28.00
2023-07-18T14:27:40.758Z,27.70
2023-07-18T14:30:10.274Z,28.10
2023-07-18T14:32:39.742Z,26.40
2023-07-18T14:35:10.551Z,27.30
2023-07-18T14:37:38.828Z,25.90
2023-07-18T14:40:09.221Z,26.50
2023-07-18T14:42:37.473Z,26.40
2023-07-18T14:45:06.445Z,26.80
2023-07-18T14:47:35.248Z,27.10
2023-07-18T14:50:03.725Z,29.00
2023-07-18T14:52:33.875Z,26.70
2023-07-18T14:55:02.055Z,27.20
2023-07-18T14:57:30.284Z,28.80
2023-07-18T14:59:58.422Z,27.90
2023-07-18T15:02:26.572Z,26.20
2023-07-18T15:04:54.949Z,26.20
2023-07-18T15:07:23.638Z,27.10
2023-07-18T15:09:53.213Z,27.50
2023-07-18T15:12:21.711Z,26.80
2023-07-18T15:14:50.473Z,26.60
2023-07-18T15:17:18.625Z,26.60
2023-07-18T15:19:50.671Z,27.50
2023-07-18T15:22:19.928Z,26.60
2023-07-18T15:24:48.891Z,26.40
2023-07-18T15:27:18.486Z,26.70
2023-07-18T15:29:47.997Z,26.60
2023-07-18T15:32:16.127Z,27.80
2023-07-18T15:34:44.659Z,27.80
2023-07-18T15:37:12.856Z,27.90
2023-07-18T15:39:41.009Z,29.20
2023-07-18T15:42:09.752Z,29.00
2023-07-18T15:44:39.386Z,30.00
2023-07-18T15:47:07.797Z,29.10
2023-07-18T15:49:36.671Z,29.90
2023-07-18T15:52:05.559Z,29.40
2023-07-18T15:54:33.698Z,27.40
2023-07-18T15:57:02.115Z,28.20
2023-07-18T15:59:31.440Z,27.50
2023-07-18T16:02:01.067Z,28.80
2023-07-18T16:04:29.289Z,28.60
2023-07-18T16:06:57.498Z,28.00
2023-07-18T16:09:29.147Z,27.20
2023-07-18T16:11:57.682Z,27.20
2023-07-18T16:14:26.236Z,28.30
2023-07-18T16:16:55.952Z,28.10
2023-07-18T16:19:25.620Z,28.70
2023-07-18T16:21:53.796Z,28.30
2023-07-18T16:24:21.968Z,27.30
2023-07-18T16:26:50.153Z,27.40
2023-07-18T16:29:18.305Z,27.00
2023-07-18T16:31:46.464Z,26.40
2023-07-18T16:34:15.934Z,28.00
2023-07-18T16:36:45.389Z,26.60
2023-07-18T16:39:13.561Z,27.50
2023-07-18T16:41:42.381Z,26.70
2023-07-18T16:44:11.044Z,26.20
2023-07-18T16:46:39.266Z,28.10
2023-07-18T16:49:07.507Z,27.70
2023-07-18T16:51:35.686Z,27.30
2023-07-18T16:54:05.296Z,27.40
2023-07-18T16:56:35.033Z,28.10
2023-07-18T16:59:04.810Z,27.10
2023-07-18T17:01:33.418Z,27.20
2023-07-18T17:04:02.696Z,26.80
2023-07-18T17:06:31.888Z,26.80
2023-07-18T17:09:00.036Z,27.30
2023-07-18T17:11:29.598Z,27.30
2023-07-18T17:13:57.796Z,27.90
2023-07-18T17:16:26.046Z,27.70
2023-07-18T17:18:54.218Z,27.00
2023-07-18T17:21:22.369Z,27.00
2023-07-18T17:23:50.892Z,27.90
2023-07-18T17:26:19.260Z,27.90
2023-07-18T17:28:49.044Z,27.90
2023-07-18T17:31:17.187Z,27.80
2023-07-18T17:33:45.465Z,27.60
2023-07-18T17:36:13.685Z,27.80
2023-07-18T17:38:41.829Z,28.10
2023-07-18T17:41:09.989Z,28.10
2023-07-18T17:43:38.235Z,28.20
2023-07-18T17:46:07.762Z,30.10
2023-07-18T17:48:35.989Z,29.90
2023-07-18T17:51:04.321Z,29.40
2023-07-18T17:53:32.874Z,29.70
2023-07-18T17:56:02.009Z,29.40
2023-07-18T17:58:30.244Z,28.90
2023-07-18T18:00:58.610Z,29.50
2023-07-18T18:03:28.211Z,29.50
2023-07-18T18:05:56.507Z,30.20
2023-07-18T18:08:24.902Z,29.50
2023-07-18T18:10:53.279Z,29.70
2023-07-18T18:13:21.532Z,30.10
2023-07-18T18:16:05.598Z,31.40
2023-07-18T18:18:36.640Z,32.50
2023-07-18T18:21:05.342Z,33.60
2023-07-18T18:26:05.071Z,34.20
2023-07-18T18:28:33.541Z,34.60
2023-07-18T18:31:01.889Z,34.70
2023-07-18T18:33:30.192Z,35.20
2023-07-18T18:36:00.341Z,35.40
2023-07-18T18:38:28.612Z,36.30
2023-07-18T18:40:56.823Z,36.20
2023-07-18T18:43:25.106Z,36.40
2023-07-18T18:45:53.392Z,35.90
2023-07-18T18:48:21.563Z,36.20
2023-07-18T18:50:49.909Z,36.90
2023-07-18T18:53:20.522Z,35.60
2023-07-18T18:55:48.751Z,35.80
2023-07-18T18:58:16.902Z,35.20
2023-07-18T19:00:45.257Z,36.30
2023-07-18T19:03:13.625Z,36.60
2023-07-18T19:05:41.781Z,36.50
2023-07-18T19:08:09.937Z,36.60
2023-07-18T19:10:41.661Z,36.70
2023-07-18T19:13:12.254Z,36.50
2023-07-18T19:15:40.395Z,36.50
2023-07-18T19:18:08.675Z,36.80
2023-07-18T19:20:37.022Z,36.70
2023-07-18T19:23:05.200Z,36.90
2023-07-18T19:25:33.413Z,37.20
2023-07-18T19:28:02.928Z,36.60
2023-07-18T19:30:31.106Z,36.70
2023-07-18T19:32:59.316Z,37.30
2023-07-18T19:35:27.868Z,38.10
2023-07-18T19:37:56.010Z,38.00
2023-07-18T19:40:24.561Z,38.10
2023-07-18T19:42:52.671Z,38.60
2023-07-18T19:45:22.201Z,40.10
2023-07-18T19:47:50.402Z,41.20
2023-07-18T19:50:18.665Z,40.80
2023-07-18T19:52:46.812Z,41.80
2023-07-18T19:55:14.955Z,41.30
2023-07-18T19:57:43.506Z,41.00
2023-07-18T20:00:12.479Z,40.50
2023-07-18T20:02:42.178Z,40.40
2023-07-18T20:05:11.016Z,40.70
2023-07-18T20:07:40.135Z,39.90
2023-07-18T20:10:09.559Z,40.10
2023-07-18T20:12:38.094Z,40.30
2023-07-18T20:15:07.182Z,40.20
2023-07-18T20:17:35.396Z,39.80
2023-07-18T20:20:05.370Z,40.20
2023-07-18T20:22:33.581Z,41.30
2023-07-18T20:25:01.693Z,41.90
2023-07-18T20:27:30.068Z,41.70
2023-07-18T20:29:59.008Z,43.10
2023-07-18T20:32:27.218Z,43.50
2023-07-18T20:34:55.379Z,42.60
2023-07-18T20:37:24.941Z,43.10
2023-07-18T20:39:53.174Z,43.40
2023-07-18T20:42:21.309Z,43.70
2023-07-18T20:44:49.466Z,44.70
2023-07-18T20:47:17.581Z,45.40
2023-07-18T20:49:45.781Z,44.70
2023-07-18T20:52:14.607Z,45.20
2023-07-18T20:54:44.140Z,46.00
2023-07-18T20:57:12.781Z,47.10
2023-07-18T20:59:40.986Z,46.70
2023-07-18T21:02:09.104Z,46.40
2023-07-18T21:04:37.253Z,46.70
2023-07-18T21:07:05.958Z,47.50
2023-07-18T21:09:34.128Z,48.00
2023-07-18T21:12:03.667Z,47.10
2023-07-18T21:14:31.972Z,47.20
2023-07-18T21:17:00.790Z,47.40
2023-07-18T21:19:28.968Z,47.80
2023-07-18T21:21:57.267Z,50.00
2023-07-18T21:24:25.447Z,51.10
2023-07-18T21:26:53.652Z,49.50
2023-07-18T21:29:23.671Z,48.40
2023-07-18T21:31:53.942Z,47.70
2023-07-18T21:34:23.900Z,47.40
2023-07-18T21:36:52.060Z,46.80
2023-07-18T21:39:20.164Z,47.80
2023-07-18T21:41:48.362Z,48.70
2023-07-18T21:44:16.756Z,48.90
2023-07-18T21:46:46.440Z,49.40
2023-07-18T21:49:14.697Z,48.10
2023-07-18T21:51:42.838Z,49.00
2023-07-18T21:54:11.242Z,50.60
2023-07-18T21:56:39.400Z,50.80
2023-07-18T21:59:07.540Z,50.40
2023-07-18T22:01:35.729Z,50.20
2023-07-18T22:04:05.445Z,50.00
2023-07-18T22:06:34.029Z,49.70
2023-07-18T22:09:02.181Z,51.40
2023-07-18T22:11:30.299Z,51.60
2023-07-18T22:13:58.472Z,51.60
2023-07-18T22:16:26.645Z,52.00
2023-07-18T22:18:54.823Z,51.30
2023-07-18T22:21:24.318Z,50.50
2023-07-18T22:23:52.451Z,50.60
2023-07-18T22:26:20.588Z,49.50
2023-07-18T22:28:48.728Z,50.30
2023-07-18T22:31:17.599Z,51.30
2023-07-18T22:33:45.877Z,52.00
2023-07-18T22:36:14.078Z,52.60
2023-07-18T22:38:43.553Z,53.50
2023-07-18T22:41:12.186Z,51.80
2023-07-18T22:43:40.510Z,54.10
2023-07-18T22:46:08.758Z,54.10
2023-07-18T22:48:36.908Z,53.40
2023-07-18T22:51:05.150Z,52.90
2023-07-18T22:53:33.828Z,51.90
2023-07-18T22:56:03.388Z,52.70
2023-07-18T22:58:31.553Z,52.70
2023-07-18T23:00:59.849Z,52.80
2023-07-18T23:03:28.191Z,54.00
2023-07-18T23:05:56.490Z,54.00
2023-07-18T23:08:24.619Z,54.40
2023-07-18T23:10:52.762Z,54.70
2023-07-18T23:13:22.311Z,57.00
2023-07-18T23:15:51.055Z,57.20
2023-07-18T23:18:19.213Z,57.50
2023-07-18T23:20:47.347Z,57.20
2023-07-18T23:23:15.621Z,56.30
2023-07-18T23:25:43.826Z,57.90
2023-07-18T23:28:15.966Z,55.60
2023-07-18T23:30:45.529Z,55.30
2023-07-18T23:33:13.689Z,57.20
2023-07-18T23:35:41.815Z,57.00
2023-07-18T23:38:09.985Z,54.40
2023-07-18T23:40:38.192Z,54.30
2023-07-18T23:43:07.315Z,54.70
2023-07-18T23:45:35.484Z,55.10
2023-07-18T23:48:05.363Z,54.50
2023-07-18T23:50:33.562Z,55.00
2023-07-18T23:53:01.715Z,55.00
2023-07-18T23:55:29.826Z,55.40
2023-07-18T23:57:57.964Z,56.10
